Time;durP1;ratioP1;P1;durP2;ratioP2;P2;SDS_P1;SDS_P2;PMS_P1;PMS_P2;Temp;Humidity;BMP_temperature;BMP_pressure;BME280_temperature;BME280_humidity;BME280_pressure;Samples;Min_cycle;Max_cycle;Signal;HPM_P1;HPM_P2
2024/02/18 00:02:35;;;;;;;;;;;;;;;;;;;;;
2024/02/18 00:05:35;;;;;;;;;;;;;;;;;;;;;
2024/02/18 00:10:48;;;;;;;8.20;1.20;;;11.30;99.90;;;;;;5069880;23;20589;-94
2024/02/18 00:14:35;;;;;;;9.77;1.08;;;11.40;99.90;;;;;;5060293;23;20173;-94
2024/02/18 00:22:04;;;;;;;2.00;0.68;;;11.10;99.90;;;;;;5069436;23;20251;-92
2024/02/18 00:24:44;;;;;;;;;;;;;;;;;;;;;
2024/02/18 00:26:51;;;;;;;1.35;0.30;;;11.10;99.90;;;;;;5090248;23;20161;-95
2024/02/18 00:29:35;;;;;;;2.28;0.50;;;10.90;99.90;;;;;;5091741;23;20185;-95
2024/02/18 00:32:10;;;;;;;11.07;1.73;;;11.00;99.90;;;;;;5095728;23;20201;-95
2024/02/18 00:37:06;;;;;;;7.13;0.98;;;10.90;99.90;;;;;;5061301;23;20244;-93
2024/02/18 00:39:17;;;;;;;2.05;1.02;;;10.90;99.90;;;;;;5069815;23;20565;-95
2024/02/18 00:41:32;;;;;;;0.75;0.50;;;10.90;99.90;;;;;;5045330;23;20233;-95
2024/02/18 00:43:59;;;;;;;2.20;1.20;;;11.00;99.90;;;;;;5047019;23;20225;-95
2024/02/18 00:46:15;;;;;;;1.65;0.70;;;11.10;99.90;;;;;;5071177;23;20233;-94
2024/02/18 00:48:20;;;;;;;5.90;0.93;;;11.10;99.90;;;;;;5048783;23;20233;-96
2024/02/18 00:50:41;;;;;;;3.00;1.35;;;11.00;99.90;;;;;;5074514;23;20598;-95
2024/02/18 00:53:05;;;;;;;1.95;0.68;;;10.90;99.90;;;;;;5072273;23;20201;-96
2024/02/18 00:55:28;;;;;;;;;;;;;;;;;;;;;
2024/02/18 00:57:37;;;;;;;9.88;1.40;;;11.00;99.90;;;;;;5072030;23;20628;-95
2024/02/18 01:00:01;;;;;;;1.20;0.80;;;10.90;99.90;;;;;;5047365;23;20270;-95
2024/02/18 01:02:15;;;;;;;6.18;1.60;;;10.80;99.90;;;;;;5074871;23;20236;-94
2024/02/18 01:05:03;;;;;;;7.78;1.52;;;10.90;99.90;;;;;;5072588;23;20678;-95
2024/02/18 01:07:33;;;;;;;5.20;1.95;;;10.90;99.90;;;;;;5036392;23;20185;-95
2024/02/18 01:09:42;;;;;;;4.35;1.60;;;10.80;99.90;;;;;;5048571;23;20164;-94
2024/02/18 01:12:36;;;;;;;;;;;;;;;;;;;;;
2024/02/18 01:14:46;;;;;;;5.57;1.55;;;11.00;99.90;;;;;;5071961;23;20189;-94
2024/02/18 01:16:58;;;;;;;4.28;1.58;;;10.80;99.90;;;;;;5049440;23;20158;-95
2024/02/18 01:19:33;;;;;;;3.35;0.98;;;10.80;99.90;;;;;;5070504;23;20224;-95
2024/02/18 01:21:52;;;;;;;2.03;1.05;;;11.00;99.90;;;;;;5072699;23;20683;-94
2024/02/18 01:24:09;;;;;;;3.80;1.00;;;11.00;99.90;;;;;;5072816;23;20146;-94
2024/02/18 01:27:09;;;;;;;3.55;1.60;;;10.90;99.90;;;;;;5046884;23;20166;-94
2024/02/18 01:29:10;;;;;;;6.38;1.23;;;10.90;99.90;;;;;;5038419;23;20506;-95
2024/02/18 01:31:57;;;;;;;2.58;1.02;;;10.90;99.90;;;;;;5073007;23;20195;-95
2024/02/18 01:34:21;;;;;;;5.32;1.05;;;10.90;99.90;;;;;;5092036;23;20165;-96
2024/02/18 01:36:27;;;;;;;3.72;1.23;;;10.80;99.90;;;;;;5047622;23;20150;-95
2024/02/18 01:38:31;;;;;;;8.88;1.17;;;10.80;99.90;;;;;;5046453;23;20174;-94
2024/02/18 01:41:13;;;;;;;9.43;1.58;;;10.90;99.90;;;;;;5095564;23;20149;-94
2024/02/18 01:43:23;;;;;;;3.95;1.23;;;11.00;99.90;;;;;;5071857;23;20158;-95
2024/02/18 01:45:33;;;;;;;3.33;1.48;;;10.90;99.90;;;;;;5072385;23;20181;-94
2024/02/18 01:47:58;;;;;;;2.30;1.15;;;11.00;99.90;;;;;;5046787;23;20150;-95
2024/02/18 01:50:00;;;;;;;4.97;1.30;;;11.00;99.90;;;;;;5084350;23;20157;-95
2024/02/18 01:52:17;;;;;;;7.72;1.42;;;11.20;99.90;;;;;;5046870;23;20241;-95
2024/02/18 01:57:16;;;;;;;;;;;;;;;;;;;;;
2024/02/18 02:00:12;;;;;;;7.70;1.90;;;10.90;99.90;;;;;;5096138;23;20144;-95
2024/02/18 02:02:42;;;;;;;3.33;1.33;;;10.70;99.90;;;;;;5096321;23;20541;-95
2024/02/18 02:04:54;;;;;;;5.88;1.30;;;10.60;99.90;;;;;;5048904;23;20217;-96
2024/02/18 02:07:45;;;;;;;4.63;2.08;;;10.60;99.90;;;;;;5092697;23;20159;-94
2024/02/18 02:10:25;;;;;;;7.43;2.13;;;10.50;99.90;;;;;;5060240;23;20573;-95
2024/02/18 02:12:53;;;;;;;10.60;2.20;;;10.50;99.90;;;;;;5094410;23;20200;-95
2024/02/18 02:15:16;;;;;;;5.78;1.38;;;10.60;99.90;;;;;;5047077;23;20483;-96
2024/02/18 02:17:33;;;;;;;3.28;0.88;;;10.50;99.90;;;;;;5073644;23;20177;-96
2024/02/18 02:20:03;;;;;;;4.05;2.20;;;10.50;99.90;;;;;;5048174;23;20158;-93
2024/02/18 02:22:21;;;;;;;8.23;2.63;;;10.50;99.90;;;;;;5072278;23;20639;-95
2024/02/18 02:24:22;;;;;;;4.82;1.60;;;10.50;99.90;;;;;;5073878;23;20157;-95
2024/02/18 02:26:30;;;;;;;8.13;1.58;;;10.40;99.90;;;;;;5045652;23;20177;-93
2024/02/18 02:28:36;;;;;;;5.50;1.17;;;10.40;99.90;;;;;;5047685;23;20253;-95
2024/02/18 02:30:37;;;;;;;6.72;1.23;;;10.40;99.90;;;;;;5071559;23;20157;-95
2024/02/18 02:32:38;;;;;;;5.75;1.92;;;10.50;99.90;;;;;;5045973;23;20194;-94
2024/02/18 02:34:48;;;;;;;4.47;2.13;;;10.50;99.90;;;;;;5070570;23;20204;-94
2024/02/18 02:37:28;;;;;;;3.42;1.33;;;10.50;99.90;;;;;;5070441;23;20227;-95
2024/02/18 02:39:34;;;;;;;6.70;1.58;;;10.60;99.90;;;;;;5047952;23;20653;-95
2024/02/18 02:41:57;;;;;;;4.80;1.35;;;10.40;99.90;;;;;;5071343;23;20158;-94
2024/02/18 02:44:11;;;;;;;2.85;0.98;;;10.40;99.90;;;;;;5049901;23;20158;-95
2024/02/18 02:46:21;;;;;;;3.70;1.33;;;10.40;99.90;;;;;;5050316;23;20155;-94
2024/02/18 02:49:05;;;;;;;3.08;0.98;;;10.30;99.90;;;;;;5067494;23;20170;-95
2024/02/18 02:51:11;;;;;;;8.55;2.20;;;10.30;99.90;;;;;;5061018;23;20164;-93
2024/02/18 02:53:27;;;;;;;6.60;1.77;;;10.50;99.90;;;;;;5091258;23;20177;-96
2024/02/18 02:55:33;;;;;;;7.57;1.80;;;10.50;99.90;;;;;;5090647;23;20189;-95
2024/02/18 02:57:51;;;;;;;1.25;0.60;;;10.40;99.90;;;;;;5072227;23;20251;-94
2024/02/18 02:59:54;;;;;;;4.10;0.77;;;10.30;99.90;;;;;;5046836;23;20150;-94
2024/02/18 03:02:17;;;;;;;3.72;1.35;;;10.30;99.90;;;;;;5045757;23;20210;-94
2024/02/18 03:04:57;;;;;;;6.38;1.77;;;10.30;99.90;;;;;;5071665;23;20226;-94
2024/02/18 03:09:58;;;;;;;3.90;1.10;;;10.50;99.90;;;;;;5095494;23;20157;-94
2024/02/18 03:12:14;;;;;;;3.45;0.63;;;10.40;99.90;;;;;;5073700;23;20216;-95
2024/02/18 03:14:31;;;;;;;2.13;0.63;;;10.30;99.90;;;;;;5072626;23;20146;-95
2024/02/18 03:16:39;;;;;;;3.33;0.93;;;10.30;99.90;;;;;;5070251;23;20149;-95
2024/02/18 03:19:06;;;;;;;;;;;;;;;;;;;;;
2024/02/18 03:21:32;;;;;;;0.98;0.60;;;10.20;99.90;;;;;;5095461;23;20149;-95
2024/02/18 03:24:23;;;;;;;;;;;;;;;;;;;;;
2024/02/18 03:26:50;;;;;;;0.93;0.40;;;10.30;99.90;;;;;;5097264;23;20164;-94
2024/02/18 03:29:16;;;;;;;;;;;;;;;;;;;;;
2024/02/18 03:31:50;;;;;;;0.90;0.45;;;10.30;99.90;;;;;;5096179;23;20192;-94
2024/02/18 03:33:52;;;;;;;2.70;0.60;;;10.30;99.90;;;;;;5034560;23;20485;-95
2024/02/18 03:36:21;;;;;;;3.40;1.08;;;10.20;99.90;;;;;;5072007;23;20157;-95
2024/02/18 03:38:55;;;;;;;6.75;1.20;;;10.10;99.90;;;;;;5046141;23;20194;-94
2024/02/18 03:41:47;;;;;;;4.20;0.95;;;10.10;99.90;;;;;;5095682;23;20168;-94
2024/02/18 03:43:58;;;;;;;4.15;0.85;;;10.30;99.90;;;;;;5049267;23;20161;-96
2024/02/18 03:46:10;;;;;;;4.55;0.68;;;10.30;99.90;;;;;;5045882;23;20154;-94
2024/02/18 03:48:20;;;;;;;2.08;0.77;;;10.20;99.90;;;;;;5045312;23;20517;-93
2024/02/18 03:53:32;;;;;;;5.78;1.13;;;10.10;99.90;;;;;;5070272;23;20219;-96
2024/02/18 03:55:57;;;;;;;3.53;0.70;;;10.20;99.90;;;;;;5070416;23;20153;-95
2024/02/18 03:58:14;;;;;;;5.63;0.45;;;10.10;99.90;;;;;;5042338;23;20685;-95
2024/02/18 04:00:35;;;;;;;9.98;0.88;;;10.10;99.90;;;;;;5075050;23;20163;-95
2024/02/18 04:02:42;;;;;;;1.27;0.50;;;10.10;99.90;;;;;;5045747;23;20218;-95
2024/02/18 04:05:13;;;;;;;3.60;1.02;;;10.10;99.90;;;;;;5072014;23;20150;-95
2024/02/18 04:07:34;;;;;;;1.48;0.57;;;10.10;99.90;;;;;;5071498;23;20164;-95
2024/02/18 04:09:49;;;;;;;5.40;1.08;;;10.10;99.90;;;;;;5074067;23;20608;-96
2024/02/18 04:12:13;;;;;;;1.83;0.50;;;10.20;99.90;;;;;;5069827;23;20200;-93
2024/02/18 04:15:02;;;;;;;16.20;2.00;;;10.10;99.90;;;;;;5095249;23;20137;-93
2024/02/18 04:17:58;;;;;;;4.68;0.68;;;10.10;99.90;;;;;;5076486;23;20221;-94
2024/02/18 04:19:59;;;;;;;1.83;0.52;;;10.10;99.90;;;;;;5097921;23;20163;-94
2024/02/18 04:22:13;;;;;;;11.80;0.73;;;10.10;99.90;;;;;;5073591;23;20161;-96
2024/02/18 04:24:39;;;;;;;4.40;1.73;;;10.10;99.90;;;;;;5047230;23;20150;-94
2024/02/18 04:26:48;;;;;;;3.67;0.60;;;10.20;99.90;;;;;;4996441;23;20170;-94
2024/02/18 04:29:29;;;;;;;2.80;0.77;;;10.20;99.90;;;;;;5098373;23;20568;-95
2024/02/18 04:31:31;;;;;;;6.53;0.80;;;10.20;99.90;;;;;;5048695;23;20189;-94
2024/02/18 04:33:39;;;;;;;1.20;0.75;;;10.30;99.90;;;;;;5069342;23;20289;-94
2024/02/18 04:35:55;;;;;;;1.70;0.88;;;10.30;99.90;;;;;;5070583;23;20153;-95
2024/02/18 04:38:09;;;;;;;4.20;0.60;;;10.20;99.90;;;;;;5092874;23;20219;-95
2024/02/18 04:40:29;;;;;;;8.02;0.98;;;10.30;99.90;;;;;;5074407;23;20152;-93
2024/02/18 04:42:36;;;;;;;4.38;0.70;;;10.30;99.90;;;;;;5047430;23;20154;-94
2024/02/18 04:45:05;;;;;;;0.38;0.30;;;10.40;99.90;;;;;;5045738;23;20182;-95
2024/02/18 04:47:13;;;;;;;6.32;0.95;;;10.40;99.90;;;;;;5042683;23;20158;-94
2024/02/18 04:49:49;;;;;;;1.15;0.60;;;10.30;99.90;;;;;;5070472;23;20165;-94
2024/02/18 04:52:17;;;;;;;7.55;2.30;;;10.20;99.90;;;;;;5048035;23;20233;-94
2024/02/18 04:54:44;;;;;;;1.13;0.40;;;10.20;99.90;;;;;;5070515;23;20149;-94
2024/02/18 04:56:48;;;;;;;7.07;0.77;;;10.20;99.90;;;;;;5045906;23;20194;-95
2024/02/18 04:58:49;;;;;;;5.40;1.15;;;10.10;99.90;;;;;;5045693;23;20170;-95
2024/02/18 05:00:56;;;;;;;3.38;0.75;;;10.00;99.90;;;;;;5069485;23;20162;-95
2024/02/18 05:03:15;;;;;;;4.63;1.48;;;10.00;99.90;;;;;;5070247;23;20153;-94
2024/02/18 05:05:39;;;;;;;2.97;0.45;;;10.00;99.90;;;;;;5075701;23;20165;-96
2024/02/18 05:08:14;;;;;;;7.53;0.40;;;10.00;99.90;;;;;;5074649;23;20228;-93
2024/02/18 05:10:41;;;;;;;1.05;0.45;;;9.90;99.90;;;;;;5046457;23;20561;-94
2024/02/18 05:12:44;;;;;;;1.48;0.85;;;10.00;99.90;;;;;;5075754;23;20185;-94
2024/02/18 05:15:25;;;;;;;13.77;1.33;;;10.00;99.90;;;;;;5050448;23;20245;-94
2024/02/18 05:17:47;;;;;;;6.93;1.40;;;9.90;99.90;;;;;;5041788;23;20155;-95
2024/02/18 05:20:03;;;;;;;5.00;0.77;;;9.90;99.90;;;;;;5067290;23;20143;-94
2024/02/18 05:22:26;;;;;;;3.83;1.05;;;10.10;99.90;;;;;;5078433;23;20161;-95
2024/02/18 05:24:48;;;;;;;4.63;1.42;;;10.20;99.90;;;;;;5074730;23;20153;-94
2024/02/18 05:26:52;;;;;;;4.72;0.98;;;10.00;99.90;;;;;;5023556;23;20174;-95
2024/02/18 05:28:55;;;;;;;0.52;0.40;;;10.10;99.90;;;;;;5044965;23;20174;-94
2024/02/18 05:31:24;;;;;;;1.77;0.50;;;10.00;99.90;;;;;;5045631;23;20514;-95
2024/02/18 05:33:29;;;;;;;8.60;1.25;;;10.00;99.90;;;;;;5069608;23;20585;-94
2024/02/18 05:35:56;;;;;;;8.65;0.68;;;10.00;99.90;;;;;;5070402;23;20157;-95
2024/02/18 05:38:39;;;;;;;2.20;0.70;;;9.90;99.90;;;;;;5047379;23;20170;-95
2024/02/18 05:40:57;;;;;;;0.60;0.25;;;10.10;99.90;;;;;;5095480;23;20156;-93
2024/02/18 05:43:00;;;;;;;3.13;0.85;;;10.00;99.90;;;;;;5047527;23;20547;-94
2024/02/18 05:45:23;;;;;;;0.30;0.30;;;10.10;99.90;;;;;;5072888;23;20181;-95
2024/02/18 05:47:33;;;;;;;10.63;1.13;;;9.90;99.90;;;;;;5070332;23;20161;-94
2024/02/18 05:49:34;;;;;;;5.38;0.95;;;10.00;99.90;;;;;;5071297;23;20237;-95
2024/02/18 05:51:52;;;;;;;5.15;0.85;;;10.10;99.90;;;;;;5046217;23;20781;-94
2024/02/18 05:54:03;;;;;;;4.78;0.70;;;10.00;99.90;;;;;;5070478;23;20153;-96
2024/02/18 05:56:13;;;;;;;6.05;1.00;;;10.00;99.90;;;;;;5047804;23;20154;-95
2024/02/18 05:58:24;;;;;;;1.38;0.77;;;9.90;99.90;;;;;;5047023;23;20214;-95
2024/02/18 06:00:51;;;;;;;4.32;0.60;;;10.00;99.90;;;;;;5047083;23;20146;-92
2024/02/18 06:03:05;;;;;;;;;;;;;;;;;;;;;
2024/02/18 06:05:12;;;;;;;10.48;1.33;;;10.20;99.90;;;;;;5072099;23;20154;-94
2024/02/18 06:07:45;;;;;;;2.20;0.55;;;10.20;99.90;;;;;;5047179;23;20625;-95
2024/02/18 06:09:59;;;;;;;3.63;0.77;;;10.10;99.90;;;;;;5057744;23;20269;-93
2024/02/18 06:12:03;;;;;;;9.30;0.70;;;10.00;99.90;;;;;;5046044;23;20256;-94
2024/02/18 06:14:05;;;;;;;2.38;0.80;;;9.90;99.90;;;;;;5070131;23;20660;-94
2024/02/18 06:16:36;;;;;;;1.98;0.60;;;10.00;99.90;;;;;;5070469;23;20162;-94
2024/02/18 06:18:44;;;;;;;2.67;0.70;;;10.00;99.90;;;;;;5046804;23;20241;-94
2024/02/18 06:20:47;;;;;;;5.57;1.63;;;9.90;99.90;;;;;;5070114;23;20158;-95
2024/02/18 06:22:55;;;;;;;4.40;0.65;;;9.70;99.90;;;;;;5070643;23;20617;-95
2024/02/18 06:24:59;;;;;;;5.82;1.05;;;9.70;99.90;;;;;;5070216;23;20157;-94
2024/02/18 06:27:03;;;;;;;2.65;1.20;;;9.70;99.90;;;;;;5045742;23;20154;-94
2024/02/18 06:29:04;;;;;;;4.80;0.98;;;9.70;99.90;;;;;;5095235;23;20173;-95
2024/02/18 06:31:10;;;;;;;10.70;0.88;;;9.60;99.90;;;;;;5069849;23;20585;-95
2024/02/18 06:33:20;;;;;;;1.45;0.90;;;9.70;99.90;;;;;;5046590;23;20521;-94
2024/02/18 06:35:27;;;;;;;2.75;0.50;;;9.80;99.90;;;;;;5046366;23;20692;-95
2024/02/18 06:37:36;;;;;;;7.32;1.05;;;9.80;99.90;;;;;;5069685;23;20593;-95
2024/02/18 06:39:45;;;;;;;2.67;1.02;;;9.70;99.90;;;;;;5071971;23;20153;-95
2024/02/18 06:41:48;;;;;;;1.55;0.82;;;9.60;99.90;;;;;;5045403;23;20227;-94
2024/02/18 06:44:12;;;;;;;3.08;1.70;;;9.70;99.90;;;;;;5094418;23;20455;-93
2024/02/18 06:46:29;;;;;;;1.05;0.88;;;9.70;99.90;;;;;;5046002;23;20189;-95
2024/02/18 06:48:41;;;;;;;4.45;1.17;;;9.50;99.90;;;;;;5046124;23;20194;-94
2024/02/18 06:50:47;;;;;;;1.08;0.60;;;9.50;99.90;;;;;;5046090;23;20161;-94
2024/02/18 06:53:19;;;;;;;4.78;1.23;;;9.40;99.90;;;;;;5069512;23;20193;-94
2024/02/18 06:55:20;;;;;;;7.18;1.27;;;9.40;99.90;;;;;;5071546;23;20543;-94
2024/02/18 06:57:24;;;;;;;4.95;1.20;;;9.40;99.90;;;;;;5045600;23;20189;-94
2024/02/18 06:59:55;;;;;;;2.88;0.95;;;9.50;99.90;;;;;;5069592;23;20189;-94
2024/02/18 07:02:02;;;;;;;2.45;0.90;;;9.50;99.90;;;;;;5063269;23;20153;-95
2024/02/18 07:04:13;;;;;;;4.15;1.38;;;9.50;99.90;;;;;;5070220;23;20176;-94
2024/02/18 07:06:18;;;;;;;4.05;1.75;;;9.50;99.90;;;;;;5046652;23;20158;-94
2024/02/18 07:08:25;;;;;;;5.90;1.67;;;9.50;99.90;;;;;;5094172;23;20212;-95
2024/02/18 07:10:48;;;;;;;7.43;2.35;;;9.40;99.90;;;;;;5094592;23;20161;-95
2024/02/18 07:12:52;;;;;;;6.72;2.38;;;9.40;99.90;;;;;;5045189;23;20193;-94
2024/02/18 07:14:56;;;;;;;8.27;2.47;;;9.30;99.90;;;;;;5072502;23;20157;-94
2024/02/18 07:17:09;;;;;;;3.00;1.27;;;9.40;99.90;;;;;;5070595;23;20234;-94
2024/02/18 07:19:10;;;;;;;8.45;1.70;;;9.40;99.90;;;;;;5046471;23;20574;-96
2024/02/18 07:21:15;;;;;;;4.53;2.25;;;9.50;99.90;;;;;;5069776;23;20153;-96
2024/02/18 07:23:45;;;;;;;10.02;1.95;;;9.50;99.90;;;;;;5071957;23;20162;-95
2024/02/18 07:25:55;;;;;;;5.25;1.38;;;9.50;99.90;;;;;;5033141;23;20180;-95
2024/02/18 07:27:59;;;;;;;5.65;1.17;;;9.60;99.90;;;;;;5045953;23;20174;-96
2024/02/18 07:30:06;;;;;;;4.80;1.80;;;9.50;99.90;;;;;;5045854;23;20166;-94
2024/02/18 07:32:13;;;;;;;2.10;0.93;;;9.50;99.90;;;;;;5045845;23;20205;-94
2024/02/18 07:34:23;;;;;;;7.13;1.40;;;9.40;99.90;;;;;;5047030;23;20130;-93
2024/02/18 07:36:43;;;;;;;11.57;1.30;;;9.40;99.90;;;;;;5071550;23;20612;-94
2024/02/18 07:38:58;;;;;;;7.53;1.42;;;9.40;99.90;;;;;;5070227;23;20167;-95
2024/02/18 07:40:59;;;;;;;7.03;2.17;;;9.50;99.90;;;;;;5069205;23;20236;-95
2024/02/18 07:43:00;;;;;;;3.22;1.08;;;9.40;99.90;;;;;;5045045;23;20197;-94
2024/02/18 07:45:01;;;;;;;4.28;1.70;;;9.40;99.90;;;;;;5093880;23;20192;-95
2024/02/18 07:47:25;;;;;;;7.43;2.17;;;9.30;99.90;;;;;;5069197;23;20149;-95
2024/02/18 07:49:36;;;;;;;9.13;2.33;;;9.30;99.90;;;;;;5070835;23;20158;-95
2024/02/18 07:51:37;;;;;;;5.80;1.77;;;9.30;99.90;;;;;;5047536;23;20521;-93
2024/02/18 07:53:47;;;;;;;6.25;2.33;;;9.30;99.90;;;;;;5094113;23;20228;-96
2024/02/18 07:55:50;;;;;;;8.65;2.53;;;9.30;99.90;;;;;;5069524;23;20149;-95
2024/02/18 07:58:14;;;;;;;10.88;2.28;;;9.30;99.90;;;;;;5068875;23;20181;-94
2024/02/18 08:00:24;;;;;;;9.98;2.90;;;9.40;99.90;;;;;;5070609;23;20663;-95
2024/02/18 08:02:30;;;;;;;7.22;2.58;;;9.40;99.90;;;;;;5045730;23;20154;-94
2024/02/18 08:04:36;;;;;;;3.80;1.60;;;9.40;99.90;;;;;;5071767;23;20512;-96
2024/02/18 08:06:38;;;;;;;7.82;2.22;;;9.40;99.90;;;;;;5045090;23;20155;-95
2024/02/18 08:08:59;;;;;;;3.50;1.60;;;9.40;99.90;;;;;;5064325;23;20220;-95
2024/02/18 08:11:00;;;;;;;5.25;1.42;;;9.50;99.90;;;;;;5045433;23;20162;-95
2024/02/18 08:13:11;;;;;;;12.48;1.92;;;9.50;99.90;;;;;;5044839;23;20204;-94
2024/02/18 08:15:14;;;;;;;6.10;2.40;;;9.40;99.90;;;;;;5070092;23;20157;-94
2024/02/18 08:17:20;;;;;;;5.03;1.58;;;9.50;99.90;;;;;;5069648;23;20548;-95
2024/02/18 08:19:22;;;;;;;3.42;1.50;;;9.50;99.90;;;;;;5044216;23;20154;-95
2024/02/18 08:21:28;;;;;;;5.63;1.92;;;9.50;99.90;;;;;;5094658;23;20288;-95
2024/02/18 08:23:37;;;;;;;5.60;1.80;;;9.50;99.90;;;;;;5046149;23;20178;-93
2024/02/18 08:25:57;;;;;;;9.30;2.00;;;9.50;99.90;;;;;;5073786;23;20165;-94
2024/02/18 08:28:14;;;;;;;5.55;2.22;;;9.60;99.90;;;;;;5045931;23;20174;-95
2024/02/18 08:30:24;;;;;;;7.75;1.77;;;9.70;99.90;;;;;;5072037;23;20469;-94
2024/02/18 08:32:28;;;;;;;3.50;1.58;;;9.70;99.90;;;;;;5045833;23;20236;-93
2024/02/18 08:34:36;;;;;;;17.30;2.22;;;9.70;99.90;;;;;;5069057;23;20150;-94
2024/02/18 08:36:40;;;;;;;5.47;1.35;;;9.70;99.90;;;;;;5069837;23;20161;-94
2024/02/18 08:38:42;;;;;;;10.25;2.85;;;9.70;99.90;;;;;;5069149;23;20753;-94
2024/02/18 08:40:43;;;;;;;5.70;2.05;;;9.70;99.90;;;;;;5046822;23;20154;-94
2024/02/18 08:42:55;;;;;;;4.88;1.08;;;9.70;99.90;;;;;;5094077;23;20472;-94
2024/02/18 08:45:02;;;;;;;8.10;2.10;;;9.60;99.90;;;;;;5045060;23;20157;-95
2024/02/18 08:47:14;;;;;;;6.10;1.55;;;9.70;99.90;;;;;;5047757;23;20150;-94
2024/02/18 08:49:42;;;;;;;;;;;;;;;;;;;;;
2024/02/18 08:51:46;;;;;;;5.82;1.58;;;9.80;99.90;;;;;;5068993;23;20196;-95
2024/02/18 08:53:53;;;;;;;7.78;1.00;;;9.80;99.90;;;;;;5096021;23;20157;-94
2024/02/18 08:55:56;;;;;;;9.23;1.42;;;9.80;99.90;;;;;;5051160;23;20138;-93
2024/02/18 08:57:59;;;;;;;5.30;1.50;;;9.80;99.90;;;;;;5069543;23;20173;-95
2024/02/18 09:00:09;;;;;;;4.15;0.93;;;9.90;99.90;;;;;;5070062;23;20188;-95
2024/02/18 09:02:12;;;;;;;6.18;1.10;;;10.00;99.90;;;;;;5069171;23;20158;-95
2024/02/18 09:04:16;;;;;;;3.60;0.68;;;10.00;99.90;;;;;;5069933;23;20216;-93
2024/02/18 09:07:07;;;;;;;5.60;0.68;;;10.00;99.90;;;;;;5095211;23;20216;-96
2024/02/18 09:09:20;;;;;;;3.00;0.90;;;10.10;99.90;;;;;;5070535;23;20173;-94
2024/02/18 09:11:21;;;;;;;6.78;0.98;;;10.20;99.90;;;;;;5047577;23;20249;-94
2024/02/18 09:13:33;;;;;;;5.40;0.98;;;10.10;99.90;;;;;;5070550;23;20161;-93
2024/02/18 09:15:34;;;;;;;4.63;1.40;;;10.10;99.90;;;;;;5070626;23;20176;-94
2024/02/18 09:17:42;;;;;;;4.70;1.05;;;10.20;99.90;;;;;;5097456;23;20240;-95
2024/02/18 09:20:07;;;;;;;6.63;1.85;;;10.30;99.90;;;;;;5046591;23;20285;-95
2024/02/18 09:22:10;;;;;;;2.95;1.02;;;10.30;99.90;;;;;;5095571;23;20136;-94
2024/02/18 09:24:11;;;;;;;5.70;1.42;;;10.30;99.90;;;;;;5073789;23;20153;-95
2024/02/18 09:26:30;;;;;;;7.03;1.55;;;10.30;99.90;;;;;;5051670;23;20174;-94
2024/02/18 09:31:47;;;;;;;0.65;0.43;;;10.20;99.90;;;;;;5060756;23;20568;-95
2024/02/18 09:34:16;;;;;;;7.43;0.70;;;10.20;99.90;;;;;;5096798;23;20149;-94
2024/02/18 09:36:17;;;;;;;4.60;0.82;;;10.20;99.90;;;;;;5047421;23;20165;-95
2024/02/18 09:38:21;;;;;;;4.38;0.32;;;10.20;99.90;;;;;;5046420;23;20249;-93
2024/02/18 09:40:28;;;;;;;0.20;0.20;;;10.20;99.90;;;;;;5072833;23;20161;-95
2024/02/18 09:43:04;;;;;;;3.05;0.82;;;10.20;99.90;;;;;;5071515;23;20179;-95
2024/02/18 09:45:13;;;;;;;3.20;0.43;;;10.30;99.90;;;;;;5047613;23;20159;-95
2024/02/18 09:47:26;;;;;;;4.22;0.65;;;10.20;99.90;;;;;;5046299;23;20204;-94
2024/02/18 09:49:39;;;;;;;9.85;0.80;;;10.30;99.90;;;;;;5071478;23;20149;-94
2024/02/18 09:51:52;;;;;;;6.32;0.75;;;10.10;99.90;;;;;;5046536;23;20233;-96
2024/02/18 09:53:59;;;;;;;6.45;1.30;;;10.10;99.90;;;;;;5070520;23;20149;-94
2024/02/18 09:56:04;;;;;;;1.80;0.35;;;10.20;99.90;;;;;;5071310;23;20195;-94
2024/02/18 09:58:06;;;;;;;0.82;0.30;;;10.20;99.90;;;;;;5071572;23;20176;-95
2024/02/18 10:00:18;;;;;;;3.15;0.90;;;10.20;99.90;;;;;;5071013;23;20168;-94
2024/02/18 10:03:01;;;;;;;13.57;0.88;;;10.20;99.90;;;;;;5069430;23;20154;-94
2024/02/18 10:05:08;;;;;;;0.90;0.40;;;10.10;99.90;;;;;;5046075;23;20158;-95
2024/02/18 10:07:19;;;;;;;3.78;0.80;;;9.90;99.90;;;;;;5071810;23;20153;-94
2024/02/18 10:09:24;;;;;;;1.13;0.50;;;10.00;99.90;;;;;;5050907;23;20204;-94
2024/02/18 10:12:41;;;;;;;8.60;1.05;;;9.90;99.90;;;;;;5096885;23;20177;-94
2024/02/18 10:14:54;;;;;;;3.10;0.40;;;9.80;99.90;;;;;;4973939;23;20171;-93
2024/02/18 10:17:21;;;;;;;0.77;0.30;;;9.60;99.90;;;;;;4959478;24;20153;-94
2024/02/18 10:20:14;;;;;;;0.45;0.38;;;9.60;99.90;;;;;;4985431;23;20151;-94
2024/02/18 10:22:45;;;;;;;0.52;0.30;;;9.50;99.90;;;;;;4967449;23;20168;-95
2024/02/18 10:25:02;;;;;;;6.68;1.08;;;9.50;99.90;;;;;;4953996;23;20152;-93
2024/02/18 10:27:40;;;;;;;1.70;0.63;;;9.50;99.90;;;;;;4974538;23;20176;-95
2024/02/18 10:29:58;;;;;;;3.00;0.95;;;9.40;99.90;;;;;;4952752;24;20157;-94
2024/02/18 10:32:25;;;;;;;1.38;0.35;;;9.40;99.90;;;;;;4973877;23;20192;-94
2024/02/18 10:44:42;;;;;;;9.60;0.70;;;9.50;99.90;;;;;;4943850;24;20219;-96
2024/02/18 10:48:04;;;;;;;0.43;0.30;;;9.40;99.90;;;;;;4950484;23;20266;-95
2024/02/18 10:51:31;;;;;;;;;;;;;;;;;;;;;
2024/02/18 10:54:19;;;;;;;3.00;0.40;;;9.50;99.90;;;;;;4848633;24;20197;-96
2024/02/18 10:57:33;;;;;;;3.72;0.70;;;9.40;99.90;;;;;;4925651;23;20160;-96
2024/02/18 11:00:10;;;;;;;;;;;;;;;;;;;;;
2024/02/18 11:09:28;;;;;;;0.25;0.22;;;9.50;99.90;;;;;;5002801;23;20271;-95
2024/02/18 11:12:17;;;;;;;;;;;;;;;;;;;;;
2024/02/18 11:20:57;;;;;;;0.80;0.20;;;9.50;99.90;;;;;;5000020;23;20171;-95
2024/02/18 11:23:10;;;;;;;1.80;0.57;;;9.50;99.90;;;;;;4979086;23;20156;-95
2024/02/18 11:25:44;;;;;;;1.73;0.75;;;9.70;99.90;;;;;;4983275;23;20148;-95
2024/02/18 11:29:02;;;;;;;;;;;;;;;;;;;;;
2024/02/18 11:35:34;;;;;;;2.78;0.50;;;9.90;99.90;;;;;;4955938;24;20648;-95
2024/02/18 11:38:48;;;;;;;0.68;0.32;;;9.90;99.90;;;;;;4947841;23;20205;-93
2024/02/18 11:41:32;;;;;;;2.78;0.93;;;9.90;99.90;;;;;;4985365;23;20153;-94
2024/02/18 11:51:24;;;;;;;3.55;0.40;;;9.80;99.90;;;;;;4992308;23;20155;-95
2024/02/18 11:54:52;;;;;;;1.65;0.30;;;9.90;99.90;;;;;;4981297;23;20183;-96
2024/02/18 11:57:44;;;;;;;1.55;0.77;;;9.90;99.90;;;;;;4946383;23;20164;-94
